PWSweather.com
Personal Weather Stations
Station Observations
KTXNEWBR92
New Braunfels, TX

New Braunfels, TX

Lat: 29.722, Lon: -98.17

Elevation: 850

Station Type:

High Low Average
Temperature 69.8°F21.0°C 51.8°F11.0°C 55.4°F13.0°C
Dew Point 56.7°F13.7°C 48.0°F8.9°C 51.9°F11.1°C
Winds 6.7 mph 10.8 kmh Calm Calm 1.0 mph S1.6 kmh S
Wind Gusts 7.4 mph11.9 kmh -- 2.0 mph3.2 kmh
Humidity 95% 54% 89%
Pressure 29.97 in1014.9 mb 29.87 in1011.5 mb -
Precipitation 0.01 in0.3 mm - -
Hour Temp Dew Point Humidity Winds Wind Gusts Pressure Precip Precip Rate Daily Precip Total
12:04 AM 55.6°F13.1°C 54.1°F12.3°C 95% Calm Calm -- 29.92 in1013.2 mb 0.00 in0.0 mm 0.00 in0.0 mm 0.00 in0.0 mm
12:09 AM 55.6°F13.1°C 54.1°F12.3°C 95% 0.4 mph S0.6 kmh S 2.5 mph4.0 kmh 29.91 in1012.9 mb 0.00 in0.0 mm 0.00 in0.0 mm 0.00 in0.0 mm
12:14 AM 55.6°F13.1°C 54.1°F12.3°C 95% 1.3 mph E2.1 kmh E 2.5 mph4.0 kmh 29.92 in1013.2 mb 0.00 in0.0 mm 0.00 in0.0 mm 0.00 in0.0 mm
12:19 AM 55.6°F13.1°C 54.1°F12.3°C 95% Calm Calm -- 29.92 in1013.2 mb 0.00 in0.0 mm 0.00 in0.0 mm 0.00 in0.0 mm
12:24 AM 55.6°F13.1°C 54.1°F12.3°C 95% Calm Calm -- 29.91 in1012.9 mb 0.00 in0.0 mm 0.00 in0.0 mm 0.00 in0.0 mm
12:29 AM 55.6°F13.1°C 54.1°F12.3°C 95% Calm Calm -- 29.91 in1012.9 mb 0.00 in0.0 mm 0.00 in0.0 mm 0.00 in0.0 mm
12:34 AM 55.8°F13.2°C 54.3°F12.4°C 95% 0.4 mph SE0.6 kmh SE 2.5 mph4.0 kmh 29.91 in1012.9 mb 0.00 in0.0 mm 0.00 in0.0 mm 0.00 in0.0 mm
12:39 AM 55.8°F13.2°C 54.3°F12.4°C 95% Calm Calm -- 29.90 in1012.5 mb 0.00 in0.0 mm 0.00 in0.0 mm 0.00 in0.0 mm
12:44 AM 55.8°F13.2°C 54.3°F12.4°C 95% 0.4 mph SW0.6 kmh SW 2.5 mph4.0 kmh 29.90 in1012.5 mb 0.00 in0.0 mm 0.00 in0.0 mm 0.00 in0.0 mm
12:49 AM 55.8°F13.2°C 54.3°F12.4°C 95% Calm Calm -- 29.90 in1012.5 mb 0.00 in0.0 mm 0.00 in0.0 mm 0.00 in0.0 mm
12:54 AM 55.8°F13.2°C 54.3°F12.4°C 95% Calm Calm -- 29.90 in1012.5 mb 0.00 in0.0 mm 0.00 in0.0 mm 0.00 in0.0 mm
12:59 AM 55.8°F13.2°C 54.3°F12.4°C 95% 2.0 mph SSW3.2 kmh SSW 2.5 mph4.0 kmh 29.90 in1012.5 mb 0.00 in0.0 mm 0.00 in0.0 mm 0.00 in0.0 mm
01:04 AM 55.8°F13.2°C 54.3°F12.4°C 95% Calm Calm -- 29.90 in1012.5 mb 0.00 in0.0 mm 0.00 in0.0 mm 0.00 in0.0 mm
01:09 AM 55.8°F13.2°C 54.3°F12.4°C 95% 2.0 mph S3.2 kmh S 2.5 mph4.0 kmh 29.90 in1012.5 mb 0.00 in0.0 mm 0.00 in0.0 mm 0.00 in0.0 mm
01:14 AM 55.8°F13.2°C 54.3°F12.4°C 95% Calm Calm -- 29.90 in1012.5 mb 0.00 in0.0 mm 0.00 in0.0 mm 0.00 in0.0 mm
01:19 AM 55.8°F13.2°C 54.3°F12.4°C 95% 0.4 mph SE0.6 kmh SE 2.5 mph4.0 kmh 29.90 in1012.5 mb 0.00 in0.0 mm 0.00 in0.0 mm 0.00 in0.0 mm
01:24 AM 55.8°F13.2°C 54.3°F12.4°C 95% Calm Calm -- 29.90 in1012.5 mb 0.00 in0.0 mm 0.00 in0.0 mm 0.00 in0.0 mm
01:29 AM 55.8°F13.2°C 54.3°F12.4°C 95% 1.3 mph SW2.1 kmh SW 2.5 mph4.0 kmh 29.90 in1012.5 mb 0.00 in0.0 mm 0.00 in0.0 mm 0.00 in0.0 mm
01:34 AM 55.8°F13.2°C 54.3°F12.4°C 95% Calm Calm -- 29.90 in1012.5 mb 0.00 in0.0 mm 0.00 in0.0 mm 0.00 in0.0 mm
01:39 AM 55.9°F13.3°C 54.5°F12.5°C 95% 1.8 mph S2.9 kmh S 2.5 mph4.0 kmh 29.89 in1012.2 mb 0.00 in0.0 mm 0.00 in0.0 mm 0.00 in0.0 mm
01:44 AM 55.9°F13.3°C 54.5°F12.5°C 95% 0.9 mph SW1.4 kmh SW 2.5 mph4.0 kmh 29.89 in1012.2 mb 0.00 in0.0 mm 0.00 in0.0 mm 0.00 in0.0 mm
01:49 AM 55.9°F13.3°C 54.5°F12.5°C 95% 0.9 mph S1.4 kmh S 2.5 mph4.0 kmh 29.90 in1012.5 mb 0.00 in0.0 mm 0.00 in0.0 mm 0.00 in0.0 mm
01:54 AM 55.9°F13.3°C 54.5°F12.5°C 95% 1.8 mph WSW2.9 kmh WSW 2.5 mph4.0 kmh 29.90 in1012.5 mb 0.00 in0.0 mm 0.00 in0.0 mm 0.00 in0.0 mm
01:59 AM 55.9°F13.3°C 54.5°F12.5°C 95% 0.4 mph SE0.6 kmh SE 2.5 mph4.0 kmh 29.91 in1012.9 mb 0.00 in0.0 mm 0.00 in0.0 mm 0.00 in0.0 mm
02:04 AM 55.9°F13.3°C 54.5°F12.5°C 95% Calm Calm -- 29.91 in1012.9 mb 0.00 in0.0 mm 0.00 in0.0 mm 0.00 in0.0 mm
02:09 AM 55.9°F13.3°C 54.5°F12.5°C 95% 1.8 mph SW2.9 kmh SW 2.5 mph4.0 kmh 29.91 in1012.9 mb 0.00 in0.0 mm 0.00 in0.0 mm 0.00 in0.0 mm
02:14 AM 55.9°F13.3°C 54.5°F12.5°C 95% 4.3 mph WSW6.9 kmh WSW 4.9 mph7.9 kmh 29.90 in1012.5 mb 0.00 in0.0 mm 0.00 in0.0 mm 0.00 in0.0 mm
02:19 AM 55.8°F13.2°C 54.3°F12.4°C 95% 2.5 mph S4.0 kmh S 4.9 mph7.9 kmh 29.90 in1012.5 mb 0.00 in0.0 mm 0.00 in0.0 mm 0.00 in0.0 mm
02:24 AM 55.8°F13.2°C 54.3°F12.4°C 95% 2.7 mph WSW4.3 kmh WSW 4.9 mph7.9 kmh 29.90 in1012.5 mb 0.00 in0.0 mm 0.00 in0.0 mm 0.00 in0.0 mm
02:29 AM 55.8°F13.2°C 54.3°F12.4°C 95% Calm Calm -- 29.90 in1012.5 mb 0.00 in0.0 mm 0.00 in0.0 mm 0.00 in0.0 mm
02:34 AM 55.8°F13.2°C 54.3°F12.4°C 95% 1.8 mph SW2.9 kmh SW 2.5 mph4.0 kmh 29.90 in1012.5 mb 0.00 in0.0 mm 0.00 in0.0 mm 0.00 in0.0 mm
02:39 AM 55.6°F13.1°C 54.1°F12.3°C 95% 0.2 mph SE0.3 kmh SE 2.5 mph4.0 kmh 29.91 in1012.9 mb 0.00 in0.0 mm 0.00 in0.0 mm 0.00 in0.0 mm
02:44 AM 55.6°F13.1°C 54.1°F12.3°C 95% 0.4 mph SSE0.6 kmh SSE 2.5 mph4.0 kmh 29.90 in1012.5 mb 0.00 in0.0 mm 0.00 in0.0 mm 0.00 in0.0 mm
02:49 AM 55.6°F13.1°C 54.1°F12.3°C 95% 4.5 mph WSW7.2 kmh WSW 4.9 mph7.9 kmh 29.90 in1012.5 mb 0.00 in0.0 mm 0.00 in0.0 mm 0.00 in0.0 mm
02:54 AM 55.6°F13.1°C 54.1°F12.3°C 95% 5.8 mph WSW9.3 kmh WSW 7.4 mph11.9 kmh 29.89 in1012.2 mb 0.00 in0.0 mm 0.00 in0.0 mm 0.00 in0.0 mm
02:59 AM 55.4°F13.0°C 54.0°F12.2°C 95% 4.5 mph WSW7.2 kmh WSW 4.9 mph7.9 kmh 29.90 in1012.5 mb 0.00 in0.0 mm 0.00 in0.0 mm 0.00 in0.0 mm
03:04 AM 55.2°F12.9°C 53.8°F12.1°C 95% 6.0 mph SSW9.7 kmh SSW 7.4 mph11.9 kmh 29.89 in1012.2 mb 0.00 in0.0 mm 0.00 in0.0 mm 0.00 in0.0 mm
03:09 AM 55.0°F12.8°C 53.6°F12.0°C 95% 1.8 mph SW2.9 kmh SW 4.9 mph7.9 kmh 29.89 in1012.2 mb 0.01 in0.3 mm 0.12 in3.0 mm 0.01 in0.3 mm
03:14 AM 54.9°F12.7°C 53.4°F11.9°C 95% 3.4 mph SW5.5 kmh SW 4.9 mph7.9 kmh 29.90 in1012.5 mb 0.01 in0.3 mm 0.00 in0.0 mm 0.01 in0.3 mm
03:19 AM 54.7°F12.6°C 53.2°F11.8°C 95% 4.0 mph WSW6.4 kmh WSW 7.4 mph11.9 kmh 29.90 in1012.5 mb 0.01 in0.3 mm 0.00 in0.0 mm 0.01 in0.3 mm
03:24 AM 54.5°F12.5°C 53.1°F11.7°C 95% 3.4 mph SW5.5 kmh SW 4.9 mph7.9 kmh 29.90 in1012.5 mb 0.01 in0.3 mm 0.00 in0.0 mm 0.01 in0.3 mm
03:29 AM 54.3°F12.4°C 52.9°F11.6°C 95% 4.0 mph SW6.4 kmh SW 7.4 mph11.9 kmh 29.89 in1012.2 mb 0.01 in0.3 mm 0.00 in0.0 mm 0.01 in0.3 mm
03:34 AM 54.3°F12.4°C 52.9°F11.6°C 95% 2.0 mph S3.2 kmh S 2.5 mph4.0 kmh 29.89 in1012.2 mb 0.01 in0.3 mm 0.00 in0.0 mm 0.01 in0.3 mm
03:39 AM 54.3°F12.4°C 52.7°F11.5°C 94% 2.0 mph SSW3.2 kmh SSW 2.5 mph4.0 kmh 29.89 in1012.2 mb 0.01 in0.3 mm 0.00 in0.0 mm 0.01 in0.3 mm
03:44 AM 54.3°F12.4°C 52.7°F11.5°C 94% 0.9 mph NW1.4 kmh NW 2.5 mph4.0 kmh 29.89 in1012.2 mb 0.01 in0.3 mm 0.00 in0.0 mm 0.01 in0.3 mm
03:49 AM 54.3°F12.4°C 52.7°F11.5°C 94% 2.9 mph WSW4.7 kmh WSW 4.9 mph7.9 kmh 29.89 in1012.2 mb 0.01 in0.3 mm 0.00 in0.0 mm 0.01 in0.3 mm
03:54 AM 54.1°F12.3°C 52.5°F11.4°C 94% 1.1 mph SSW1.8 kmh SSW 2.5 mph4.0 kmh 29.89 in1012.2 mb 0.01 in0.3 mm 0.00 in0.0 mm 0.01 in0.3 mm
03:59 AM 54.1°F12.3°C 52.5°F11.4°C 94% 2.0 mph SE3.2 kmh SE 4.9 mph7.9 kmh 29.89 in1012.2 mb 0.01 in0.3 mm 0.00 in0.0 mm 0.01 in0.3 mm
04:04 AM 54.1°F12.3°C 52.5°F11.4°C 94% 3.4 mph WSW5.5 kmh WSW 7.4 mph11.9 kmh 29.89 in1012.2 mb 0.00 in0.0 mm 0.00 in0.0 mm 0.01 in0.3 mm
04:09 AM 54.1°F12.3°C 52.5°F11.4°C 94% 4.9 mph SW7.9 kmh SW 7.4 mph11.9 kmh 29.88 in1011.9 mb 0.00 in0.0 mm 0.00 in0.0 mm 0.01 in0.3 mm
04:14 AM 54.0°F12.2°C 52.3°F11.3°C 94% 0.4 mph S0.6 kmh S 2.5 mph4.0 kmh 29.88 in1011.9 mb 0.00 in0.0 mm 0.00 in0.0 mm 0.01 in0.3 mm
04:19 AM 54.0°F12.2°C 52.3°F11.3°C 94% 2.5 mph SW4.0 kmh SW 2.5 mph4.0 kmh 29.88 in1011.9 mb 0.00 in0.0 mm 0.00 in0.0 mm 0.01 in0.3 mm
04:24 AM 54.0°F12.2°C 52.3°F11.3°C 94% 1.8 mph S2.9 kmh S 2.5 mph4.0 kmh 29.88 in1011.9 mb 0.00 in0.0 mm 0.00 in0.0 mm 0.01 in0.3 mm
04:29 AM 54.0°F12.2°C 52.3°F11.3°C 94% 5.1 mph SW8.2 kmh SW 7.4 mph11.9 kmh 29.88 in1011.9 mb 0.00 in0.0 mm 0.00 in0.0 mm 0.01 in0.3 mm
04:34 AM 54.0°F12.2°C 52.3°F11.3°C 94% 6.7 mph SW10.8 kmh SW 7.4 mph11.9 kmh 29.88 in1011.9 mb 0.00 in0.0 mm 0.00 in0.0 mm 0.01 in0.3 mm
04:39 AM 53.8°F12.1°C 52.2°F11.2°C 94% 0.4 mph WSW0.6 kmh WSW 2.5 mph4.0 kmh 29.88 in1011.9 mb 0.00 in0.0 mm 0.00 in0.0 mm 0.01 in0.3 mm
04:44 AM 53.8°F12.1°C 52.2°F11.2°C 94% 1.3 mph SSW2.1 kmh SSW 2.5 mph4.0 kmh 29.88 in1011.9 mb 0.00 in0.0 mm 0.00 in0.0 mm 0.01 in0.3 mm
04:49 AM 53.8°F12.1°C 52.2°F11.2°C 94% 1.8 mph SE2.9 kmh SE 2.5 mph4.0 kmh 29.88 in1011.9 mb 0.00 in0.0 mm 0.00 in0.0 mm 0.01 in0.3 mm
04:54 AM 53.8°F12.1°C 52.2°F11.2°C 94% 2.0 mph SSW3.2 kmh SSW 2.5 mph4.0 kmh 29.88 in1011.9 mb 0.00 in0.0 mm 0.00 in0.0 mm 0.01 in0.3 mm
04:59 AM 53.8°F12.1°C 52.2°F11.2°C 94% 2.5 mph SSW4.0 kmh SSW 2.5 mph4.0 kmh 29.88 in1011.9 mb 0.00 in0.0 mm 0.00 in0.0 mm 0.01 in0.3 mm
05:04 AM 53.8°F12.1°C 52.2°F11.2°C 94% Calm Calm -- 29.88 in1011.9 mb 0.00 in0.0 mm 0.00 in0.0 mm 0.01 in0.3 mm
05:09 AM 53.8°F12.1°C 52.2°F11.2°C 94% 3.4 mph WSW5.5 kmh WSW 4.9 mph7.9 kmh 29.88 in1011.9 mb 0.00 in0.0 mm 0.00 in0.0 mm 0.01 in0.3 mm
05:14 AM 53.6°F12.0°C 52.0°F11.1°C 94% 1.1 mph S1.8 kmh S 2.5 mph4.0 kmh 29.89 in1012.2 mb 0.00 in0.0 mm 0.00 in0.0 mm 0.01 in0.3 mm
05:19 AM 53.6°F12.0°C 52.0°F11.1°C 94% 1.8 mph SE2.9 kmh SE 2.5 mph4.0 kmh 29.88 in1011.9 mb 0.00 in0.0 mm 0.00 in0.0 mm 0.01 in0.3 mm
05:24 AM 53.6°F12.0°C 52.0°F11.1°C 94% 4.3 mph SW6.9 kmh SW 4.9 mph7.9 kmh 29.88 in1011.9 mb 0.00 in0.0 mm 0.00 in0.0 mm 0.01 in0.3 mm
05:29 AM 53.6°F12.0°C 52.0°F11.1°C 94% 2.7 mph SW4.3 kmh SW 4.9 mph7.9 kmh 29.88 in1011.9 mb 0.00 in0.0 mm 0.00 in0.0 mm 0.01 in0.3 mm
05:34 AM 53.4°F11.9°C 51.8°F11.0°C 94% 1.1 mph SSW1.8 kmh SSW 2.5 mph4.0 kmh 29.88 in1011.9 mb 0.00 in0.0 mm 0.00 in0.0 mm 0.01 in0.3 mm
05:39 AM 53.4°F11.9°C 51.8°F11.0°C 94% 2.5 mph S4.0 kmh S 4.9 mph7.9 kmh 29.88 in1011.9 mb 0.00 in0.0 mm 0.00 in0.0 mm 0.01 in0.3 mm
05:44 AM 53.2°F11.8°C 51.6°F10.9°C 94% 1.1 mph SW1.8 kmh SW 2.5 mph4.0 kmh 29.88 in1011.9 mb 0.00 in0.0 mm 0.00 in0.0 mm 0.01 in0.3 mm
05:49 AM 53.2°F11.8°C 51.6°F10.9°C 94% Calm Calm -- 29.88 in1011.9 mb 0.00 in0.0 mm 0.00 in0.0 mm 0.01 in0.3 mm
05:54 AM 53.2°F11.8°C 51.6°F10.9°C 94% Calm Calm -- 29.88 in1011.9 mb 0.00 in0.0 mm 0.00 in0.0 mm 0.01 in0.3 mm
05:59 AM 53.2°F11.8°C 51.6°F10.9°C 94% 0.9 mph SE1.4 kmh SE 2.5 mph4.0 kmh 29.88 in1011.9 mb 0.00 in0.0 mm 0.00 in0.0 mm 0.01 in0.3 mm
06:04 AM 53.2°F11.8°C 51.6°F10.9°C 94% 2.5 mph SW4.0 kmh SW 4.9 mph7.9 kmh 29.88 in1011.9 mb 0.00 in0.0 mm 0.00 in0.0 mm 0.01 in0.3 mm
06:09 AM 53.1°F11.7°C 51.4°F10.8°C 94% 1.1 mph ESE1.8 kmh ESE 2.5 mph4.0 kmh 29.88 in1011.9 mb 0.00 in0.0 mm 0.00 in0.0 mm 0.01 in0.3 mm
06:14 AM 53.1°F11.7°C 51.4°F10.8°C 94% 1.1 mph S1.8 kmh S 2.5 mph4.0 kmh 29.88 in1011.9 mb 0.00 in0.0 mm 0.00 in0.0 mm 0.01 in0.3 mm
06:19 AM 53.1°F11.7°C 51.4°F10.8°C 94% 0.4 mph SE0.6 kmh SE 2.5 mph4.0 kmh 29.88 in1011.9 mb 0.00 in0.0 mm 0.00 in0.0 mm 0.01 in0.3 mm
06:24 AM 53.1°F11.7°C 51.4°F10.8°C 94% 0.4 mph SE0.6 kmh SE 2.5 mph4.0 kmh 29.89 in1012.2 mb 0.00 in0.0 mm 0.00 in0.0 mm 0.01 in0.3 mm
06:29 AM 53.1°F11.7°C 51.4°F10.8°C 94% Calm Calm -- 29.89 in1012.2 mb 0.00 in0.0 mm 0.00 in0.0 mm 0.01 in0.3 mm
06:34 AM 53.1°F11.7°C 51.4°F10.8°C 94% Calm Calm -- 29.88 in1011.9 mb 0.00 in0.0 mm 0.00 in0.0 mm 0.01 in0.3 mm
06:39 AM 53.1°F11.7°C 51.4°F10.8°C 94% 2.5 mph S4.0 kmh S 4.9 mph7.9 kmh 29.88 in1011.9 mb 0.00 in0.0 mm 0.00 in0.0 mm 0.01 in0.3 mm
06:44 AM 52.9°F11.6°C 51.3°F10.7°C 94% 2.9 mph SW4.7 kmh SW 4.9 mph7.9 kmh 29.89 in1012.2 mb 0.00 in0.0 mm 0.00 in0.0 mm 0.01 in0.3 mm
06:49 AM 52.9°F11.6°C 51.3°F10.7°C 94% 1.3 mph SSE2.1 kmh SSE 2.5 mph4.0 kmh 29.90 in1012.5 mb 0.00 in0.0 mm 0.00 in0.0 mm 0.01 in0.3 mm
06:54 AM 52.9°F11.6°C 51.3°F10.7°C 94% 2.0 mph WSW3.2 kmh WSW 2.5 mph4.0 kmh 29.90 in1012.5 mb 0.00 in0.0 mm 0.00 in0.0 mm 0.01 in0.3 mm
06:59 AM 52.7°F11.5°C 51.1°F10.6°C 94% 1.3 mph SW2.1 kmh SW 2.5 mph4.0 kmh 29.90 in1012.5 mb 0.00 in0.0 mm 0.00 in0.0 mm 0.01 in0.3 mm
07:04 AM 52.7°F11.5°C 51.1°F10.6°C 94% 2.5 mph SSW4.0 kmh SSW 4.9 mph7.9 kmh 29.89 in1012.2 mb 0.00 in0.0 mm 0.00 in0.0 mm 0.01 in0.3 mm
07:09 AM 52.5°F11.4°C 50.9°F10.5°C 94% 2.7 mph S4.3 kmh S 4.9 mph7.9 kmh 29.90 in1012.5 mb 0.00 in0.0 mm 0.00 in0.0 mm 0.01 in0.3 mm
07:14 AM 52.5°F11.4°C 50.9°F10.5°C 94% 1.8 mph SE2.9 kmh SE 2.5 mph4.0 kmh 29.89 in1012.2 mb 0.00 in0.0 mm 0.00 in0.0 mm 0.01 in0.3 mm
07:19 AM 52.3°F11.3°C 50.7°F10.4°C 94% 3.4 mph WSW5.5 kmh WSW 4.9 mph7.9 kmh 29.90 in1012.5 mb 0.00 in0.0 mm 0.00 in0.0 mm 0.01 in0.3 mm
07:24 AM 52.3°F11.3°C 50.7°F10.4°C 94% 1.1 mph SSW1.8 kmh SSW 2.5 mph4.0 kmh 29.90 in1012.5 mb 0.00 in0.0 mm 0.00 in0.0 mm 0.01 in0.3 mm
07:29 AM 52.3°F11.3°C 50.7°F10.4°C 94% 4.0 mph WSW6.4 kmh WSW 4.9 mph7.9 kmh 29.90 in1012.5 mb 0.00 in0.0 mm 0.00 in0.0 mm 0.01 in0.3 mm
07:34 AM 52.3°F11.3°C 50.7°F10.4°C 94% 0.4 mph SW0.6 kmh SW 2.5 mph4.0 kmh 29.91 in1012.9 mb 0.00 in0.0 mm 0.00 in0.0 mm 0.01 in0.3 mm
07:39 AM 52.3°F11.3°C 50.7°F10.4°C 94% 2.9 mph WSW4.7 kmh WSW 4.9 mph7.9 kmh 29.90 in1012.5 mb 0.00 in0.0 mm 0.00 in0.0 mm 0.01 in0.3 mm
07:44 AM 52.3°F11.3°C 50.7°F10.4°C 94% 2.5 mph ENE4.0 kmh ENE 4.9 mph7.9 kmh 29.91 in1012.9 mb 0.00 in0.0 mm 0.00 in0.0 mm 0.01 in0.3 mm
07:49 AM 52.3°F11.3°C 50.7°F10.4°C 94% 5.8 mph SW9.3 kmh SW 7.4 mph11.9 kmh 29.92 in1013.2 mb 0.00 in0.0 mm 0.00 in0.0 mm 0.01 in0.3 mm
07:54 AM 52.2°F11.2°C 50.5°F10.3°C 94% 2.9 mph SSW4.7 kmh SSW 4.9 mph7.9 kmh 29.92 in1013.2 mb 0.00 in0.0 mm 0.00 in0.0 mm 0.01 in0.3 mm
07:59 AM 52.2°F11.2°C 50.5°F10.3°C 94% 1.1 mph S1.8 kmh S 2.5 mph4.0 kmh 29.91 in1012.9 mb 0.00 in0.0 mm 0.00 in0.0 mm 0.01 in0.3 mm
08:04 AM 52.0°F11.1°C 50.4°F10.2°C 94% 2.7 mph W4.3 kmh W 4.9 mph7.9 kmh 29.92 in1013.2 mb 0.00 in0.0 mm 0.00 in0.0 mm 0.01 in0.3 mm
08:09 AM 52.0°F11.1°C 50.4°F10.2°C 94% 2.0 mph S3.2 kmh S 2.5 mph4.0 kmh 29.92 in1013.2 mb 0.00 in0.0 mm 0.00 in0.0 mm 0.01 in0.3 mm
08:14 AM 52.0°F11.1°C 50.4°F10.2°C 94% 1.1 mph SE1.8 kmh SE 2.5 mph4.0 kmh 29.93 in1013.5 mb 0.00 in0.0 mm 0.00 in0.0 mm 0.01 in0.3 mm
08:19 AM 51.8°F11.0°C 50.2°F10.1°C 94% 2.0 mph SE3.2 kmh SE 2.5 mph4.0 kmh 29.92 in1013.2 mb 0.00 in0.0 mm 0.00 in0.0 mm 0.01 in0.3 mm
08:24 AM 52.2°F11.2°C 50.5°F10.3°C 94% 0.4 mph SSE0.6 kmh SSE 2.5 mph4.0 kmh 29.93 in1013.5 mb 0.00 in0.0 mm 0.00 in0.0 mm 0.01 in0.3 mm
08:29 AM 52.2°F11.2°C 50.5°F10.3°C 94% 0.4 mph NE0.6 kmh NE 2.5 mph4.0 kmh 29.93 in1013.5 mb 0.00 in0.0 mm 0.00 in0.0 mm 0.01 in0.3 mm
08:34 AM 52.3°F11.3°C 50.7°F10.4°C 94% 1.3 mph WSW2.1 kmh WSW 2.5 mph4.0 kmh 29.92 in1013.2 mb 0.00 in0.0 mm 0.00 in0.0 mm 0.01 in0.3 mm
08:39 AM 52.3°F11.3°C 50.7°F10.4°C 94% 0.2 mph E0.3 kmh E 2.5 mph4.0 kmh 29.93 in1013.5 mb 0.00 in0.0 mm 0.00 in0.0 mm 0.01 in0.3 mm
08:44 AM 52.3°F11.3°C 50.7°F10.4°C 94% Calm Calm -- 29.94 in1013.9 mb 0.00 in0.0 mm 0.00 in0.0 mm 0.01 in0.3 mm
08:49 AM 52.5°F11.4°C 50.9°F10.5°C 94% 0.2 mph ESE0.3 kmh ESE 2.5 mph4.0 kmh 29.94 in1013.9 mb 0.00 in0.0 mm 0.00 in0.0 mm 0.01 in0.3 mm
08:54 AM 52.5°F11.4°C 50.9°F10.5°C 94% 2.9 mph WSW4.7 kmh WSW 4.9 mph7.9 kmh 29.95 in1014.2 mb 0.00 in0.0 mm 0.00 in0.0 mm 0.01 in0.3 mm
08:59 AM 52.7°F11.5°C 51.1°F10.6°C 94% 2.9 mph SW4.7 kmh SW 4.9 mph7.9 kmh 29.95 in1014.2 mb 0.00 in0.0 mm 0.00 in0.0 mm 0.01 in0.3 mm
09:04 AM 52.7°F11.5°C 51.1°F10.6°C 94% 1.1 mph SE1.8 kmh SE 2.5 mph4.0 kmh 29.95 in1014.2 mb 0.00 in0.0 mm 0.00 in0.0 mm 0.01 in0.3 mm
09:09 AM 52.9°F11.6°C 51.3°F10.7°C 94% 1.8 mph S2.9 kmh S 4.9 mph7.9 kmh 29.94 in1013.9 mb 0.00 in0.0 mm 0.00 in0.0 mm 0.01 in0.3 mm
09:14 AM 52.9°F11.6°C 50.9°F10.5°C 93% 1.8 mph S2.9 kmh S 2.5 mph4.0 kmh 29.95 in1014.2 mb 0.00 in0.0 mm 0.00 in0.0 mm 0.01 in0.3 mm
09:19 AM 53.1°F11.7°C 51.1°F10.6°C 93% 2.5 mph SSW4.0 kmh SSW 4.9 mph7.9 kmh 29.94 in1013.9 mb 0.00 in0.0 mm 0.00 in0.0 mm 0.01 in0.3 mm
09:24 AM 53.1°F11.7°C 51.1°F10.6°C 93% 0.2 mph ENE0.3 kmh ENE 2.5 mph4.0 kmh 29.93 in1013.5 mb 0.00 in0.0 mm 0.00 in0.0 mm 0.01 in0.3 mm
09:29 AM 53.2°F11.8°C 51.3°F10.7°C 93% 1.3 mph SSE2.1 kmh SSE 2.5 mph4.0 kmh 29.93 in1013.5 mb 0.00 in0.0 mm 0.00 in0.0 mm 0.01 in0.3 mm
09:34 AM 53.4°F11.9°C 51.3°F10.7°C 92% Calm Calm -- 29.94 in1013.9 mb 0.00 in0.0 mm 0.00 in0.0 mm 0.01 in0.3 mm
09:39 AM 53.6°F12.0°C 51.4°F10.8°C 92% Calm Calm -- 29.94 in1013.9 mb 0.00 in0.0 mm 0.00 in0.0 mm 0.01 in0.3 mm
09:44 AM 53.8°F12.1°C 51.3°F10.7°C 91% Calm Calm -- 29.94 in1013.9 mb 0.00 in0.0 mm 0.00 in0.0 mm 0.01 in0.3 mm
09:49 AM 54.1°F12.3°C 51.6°F10.9°C 91% 2.9 mph WSW4.7 kmh WSW 4.9 mph7.9 kmh 29.95 in1014.2 mb 0.00 in0.0 mm 0.00 in0.0 mm 0.01 in0.3 mm
09:54 AM 54.3°F12.4°C 51.4°F10.8°C 90% 2.7 mph S4.3 kmh S 4.9 mph7.9 kmh 29.95 in1014.2 mb 0.00 in0.0 mm 0.00 in0.0 mm 0.01 in0.3 mm
09:59 AM 54.7°F12.6°C 51.8°F11.0°C 90% 0.4 mph SE0.6 kmh SE 2.5 mph4.0 kmh 29.95 in1014.2 mb 0.00 in0.0 mm 0.00 in0.0 mm 0.01 in0.3 mm
10:04 AM 54.9°F12.7°C 51.6°F10.9°C 89% 0.2 mph SSE0.3 kmh SSE 2.5 mph4.0 kmh 29.96 in1014.6 mb 0.00 in0.0 mm 0.00 in0.0 mm 0.01 in0.3 mm
10:09 AM 55.4°F13.0°C 52.0°F11.1°C 88% 0.9 mph SW1.4 kmh SW 2.5 mph4.0 kmh 29.96 in1014.6 mb 0.00 in0.0 mm 0.00 in0.0 mm 0.01 in0.3 mm
10:14 AM 55.6°F13.1°C 52.2°F11.2°C 88% 1.8 mph SE2.9 kmh SE 2.5 mph4.0 kmh 29.96 in1014.6 mb 0.00 in0.0 mm 0.00 in0.0 mm 0.01 in0.3 mm
10:19 AM 56.1°F13.4°C 52.3°F11.3°C 87% 3.6 mph ESE5.8 kmh ESE 4.9 mph7.9 kmh 29.95 in1014.2 mb 0.00 in0.0 mm 0.00 in0.0 mm 0.01 in0.3 mm
10:24 AM 56.5°F13.6°C 52.3°F11.3°C 86% 0.2 mph WSW0.3 kmh WSW 2.5 mph4.0 kmh 29.96 in1014.6 mb 0.00 in0.0 mm 0.00 in0.0 mm 0.01 in0.3 mm
10:29 AM 57.0°F13.9°C 52.5°F11.4°C 85% 2.9 mph SW4.7 kmh SW 4.9 mph7.9 kmh 29.96 in1014.6 mb 0.00 in0.0 mm 0.00 in0.0 mm 0.01 in0.3 mm
10:34 AM 57.6°F14.2°C 53.1°F11.7°C 85% 1.1 mph SW1.8 kmh SW 2.5 mph4.0 kmh 29.96 in1014.6 mb 0.00 in0.0 mm 0.00 in0.0 mm 0.01 in0.3 mm
10:39 AM 58.3°F14.6°C 52.9°F11.6°C 82% 1.8 mph S2.9 kmh S 2.5 mph4.0 kmh 29.96 in1014.6 mb 0.00 in0.0 mm 0.00 in0.0 mm 0.01 in0.3 mm
10:44 AM 59.0°F15.0°C 53.6°F12.0°C 82% 2.9 mph SW4.7 kmh SW 4.9 mph7.9 kmh 29.96 in1014.6 mb 0.00 in0.0 mm 0.00 in0.0 mm 0.01 in0.3 mm
10:49 AM 59.5°F15.3°C 53.8°F12.1°C 81% 2.0 mph SE3.2 kmh SE 2.5 mph4.0 kmh 29.96 in1014.6 mb 0.00 in0.0 mm 0.00 in0.0 mm 0.01 in0.3 mm
10:54 AM 60.3°F15.7°C 54.1°F12.3°C 80% 0.2 mph SE0.3 kmh SE 2.5 mph4.0 kmh 29.96 in1014.6 mb 0.00 in0.0 mm 0.00 in0.0 mm 0.01 in0.3 mm
10:59 AM 60.8°F16.0°C 54.7°F12.6°C 80% 2.5 mph S4.0 kmh S 2.5 mph4.0 kmh 29.97 in1014.9 mb 0.00 in0.0 mm 0.00 in0.0 mm 0.01 in0.3 mm
11:04 AM 61.2°F16.2°C 55.0°F12.8°C 80% 1.8 mph E2.9 kmh E 2.5 mph4.0 kmh 29.96 in1014.6 mb 0.00 in0.0 mm 0.00 in0.0 mm 0.01 in0.3 mm
11:09 AM 61.7°F16.5°C 54.9°F12.7°C 78% 1.1 mph SSE1.8 kmh SSE 2.5 mph4.0 kmh 29.96 in1014.6 mb 0.00 in0.0 mm 0.00 in0.0 mm 0.01 in0.3 mm
11:14 AM 61.9°F16.6°C 55.0°F12.8°C 78% 0.2 mph ESE0.3 kmh ESE 2.5 mph4.0 kmh 29.96 in1014.6 mb 0.00 in0.0 mm 0.00 in0.0 mm 0.01 in0.3 mm
11:19 AM 62.2°F16.8°C 55.4°F13.0°C 78% 0.4 mph SSE0.6 kmh SSE 2.5 mph4.0 kmh 29.96 in1014.6 mb 0.00 in0.0 mm 0.00 in0.0 mm 0.01 in0.3 mm
11:24 AM 62.6°F17.0°C 55.4°F13.0°C 77% 2.0 mph S3.2 kmh S 2.5 mph4.0 kmh 29.96 in1014.6 mb 0.00 in0.0 mm 0.00 in0.0 mm 0.01 in0.3 mm
11:29 AM 63.0°F17.2°C 54.5°F12.5°C 74% 1.8 mph NE2.9 kmh NE 2.5 mph4.0 kmh 29.95 in1014.2 mb 0.00 in0.0 mm 0.00 in0.0 mm 0.01 in0.3 mm
11:34 AM 63.5°F17.5°C 55.4°F13.0°C 75% Calm Calm -- 29.96 in1014.6 mb 0.00 in0.0 mm 0.00 in0.0 mm 0.01 in0.3 mm
11:39 AM 63.9°F17.7°C 54.7°F12.6°C 72% 3.4 mph SSW5.5 kmh SSW 4.9 mph7.9 kmh 29.95 in1014.2 mb 0.00 in0.0 mm 0.00 in0.0 mm 0.01 in0.3 mm
11:44 AM 64.4°F18.0°C 55.6°F13.1°C 73% 0.2 mph ESE0.3 kmh ESE 2.5 mph4.0 kmh 29.95 in1014.2 mb 0.00 in0.0 mm 0.00 in0.0 mm 0.01 in0.3 mm
11:49 AM 65.1°F18.4°C 55.9°F13.3°C 72% 2.0 mph SW3.2 kmh SW 2.5 mph4.0 kmh 29.95 in1014.2 mb 0.00 in0.0 mm 0.00 in0.0 mm 0.01 in0.3 mm
11:54 AM 65.7°F18.7°C 55.6°F13.1°C 70% 0.9 mph WSW1.4 kmh WSW 2.5 mph4.0 kmh 29.95 in1014.2 mb 0.00 in0.0 mm 0.00 in0.0 mm 0.01 in0.3 mm
11:59 AM 66.2°F19.0°C 55.4°F13.0°C 68% 0.9 mph E1.4 kmh E 2.5 mph4.0 kmh 29.94 in1013.9 mb 0.00 in0.0 mm 0.00 in0.0 mm 0.01 in0.3 mm
12:04 PM 66.9°F19.4°C 56.1°F13.4°C 68% Calm Calm -- 29.95 in1014.2 mb 0.00 in0.0 mm 0.00 in0.0 mm 0.01 in0.3 mm
12:09 PM 67.5°F19.7°C 56.1°F13.4°C 67% 1.1 mph ENE1.8 kmh ENE 2.5 mph4.0 kmh 29.94 in1013.9 mb 0.00 in0.0 mm 0.00 in0.0 mm 0.01 in0.3 mm
12:14 PM 68.0°F20.0°C 56.7°F13.7°C 67% 3.6 mph SSW5.8 kmh SSW 4.9 mph7.9 kmh 29.94 in1013.9 mb 0.00 in0.0 mm 0.00 in0.0 mm 0.01 in0.3 mm
12:19 PM 68.5°F20.3°C 56.3°F13.5°C 65% 0.4 mph SE0.6 kmh SE 2.5 mph4.0 kmh 29.93 in1013.5 mb 0.00 in0.0 mm 0.00 in0.0 mm 0.01 in0.3 mm
12:24 PM 69.1°F20.6°C 52.3°F11.3°C 55% 0.2 mph E0.3 kmh E 2.5 mph4.0 kmh 29.93 in1013.5 mb 0.00 in0.0 mm 0.00 in0.0 mm 0.01 in0.3 mm
12:29 PM 69.4°F20.8°C 53.6°F12.0°C 57% Calm Calm -- 29.94 in1013.9 mb 0.00 in0.0 mm 0.00 in0.0 mm 0.01 in0.3 mm
12:33 PM 69.8°F21.0°C 52.5°F11.4°C 54% 1.1 mph WSW1.8 kmh WSW 2.5 mph4.0 kmh 29.93 in1013.5 mb 0.00 in0.0 mm 0.00 in0.0 mm 0.01 in0.3 mm
07:44 PM 55.0°F12.8°C 48.7°F9.3°C 79% Calm Calm -- 29.87 in1011.5 mb 0.00 in0.0 mm 0.00 in0.0 mm 0.01 in0.3 mm
07:54 PM 55.2°F12.9°C 48.6°F9.2°C 78% 0.2 mph ESE0.3 kmh ESE 2.5 mph4.0 kmh 29.87 in1011.5 mb 0.00 in0.0 mm 0.00 in0.0 mm 0.01 in0.3 mm
07:59 PM 55.6°F13.1°C 48.2°F9.0°C 76% 1.3 mph SW2.1 kmh SW 2.5 mph4.0 kmh 29.87 in1011.5 mb 0.00 in0.0 mm 0.00 in0.0 mm 0.01 in0.3 mm
08:04 PM 55.9°F13.3°C 48.2°F9.0°C 75% 0.4 mph E0.6 kmh E 2.5 mph4.0 kmh 29.87 in1011.5 mb 0.00 in0.0 mm 0.00 in0.0 mm 0.01 in0.3 mm
08:09 PM 56.1°F13.4°C 48.0°F8.9°C 74% Calm Calm -- 29.87 in1011.5 mb 0.00 in0.0 mm 0.00 in0.0 mm 0.01 in0.3 mm
08:14 PM 56.5°F13.6°C 48.4°F9.1°C 74% Calm Calm -- 29.87 in1011.5 mb 0.00 in0.0 mm 0.00 in0.0 mm 0.01 in0.3 mm
08:19 PM 56.7°F13.7°C 48.6°F9.2°C 74% Calm Calm -- 29.87 in1011.5 mb 0.00 in0.0 mm 0.00 in0.0 mm 0.01 in0.3 mm
08:24 PM 56.5°F13.6°C 48.7°F9.3°C 75% Calm Calm -- 29.87 in1011.5 mb 0.00 in0.0 mm 0.00 in0.0 mm 0.01 in0.3 mm
08:29 PM 56.5°F13.6°C 49.1°F9.5°C 76% Calm Calm -- 29.87 in1011.5 mb 0.00 in0.0 mm 0.00 in0.0 mm 0.01 in0.3 mm
08:34 PM 56.1°F13.4°C 48.7°F9.3°C 76% Calm Calm -- 29.87 in1011.5 mb 0.00 in0.0 mm 0.00 in0.0 mm 0.01 in0.3 mm
08:39 PM 55.8°F13.2°C 49.1°F9.5°C 78% Calm Calm -- 29.87 in1011.5 mb 0.00 in0.0 mm 0.00 in0.0 mm 0.01 in0.3 mm
08:44 PM 55.4°F13.0°C 48.4°F9.1°C 77% 0.4 mph SSE0.6 kmh SSE 2.5 mph4.0 kmh 29.87 in1011.5 mb 0.00 in0.0 mm 0.00 in0.0 mm 0.01 in0.3 mm
08:49 PM 55.2°F12.9°C 48.2°F9.0°C 77% Calm Calm -- 29.87 in1011.5 mb 0.00 in0.0 mm 0.00 in0.0 mm 0.01 in0.3 mm
08:54 PM 55.0°F12.8°C 48.4°F9.1°C 78% Calm Calm -- 29.88 in1011.9 mb 0.00 in0.0 mm 0.00 in0.0 mm 0.01 in0.3 mm
08:59 PM 55.0°F12.8°C 48.4°F9.1°C 78% 0.4 mph SSE0.6 kmh SSE 2.5 mph4.0 kmh 29.88 in1011.9 mb 0.00 in0.0 mm 0.00 in0.0 mm 0.01 in0.3 mm
09:04 PM 55.0°F12.8°C 48.4°F9.1°C 78% 0.4 mph ESE0.6 kmh ESE 2.5 mph4.0 kmh 29.88 in1011.9 mb 0.00 in0.0 mm 0.00 in0.0 mm 0.01 in0.3 mm
09:09 PM 55.2°F12.9°C 48.6°F9.2°C 78% 2.5 mph SSE4.0 kmh SSE 4.9 mph7.9 kmh 29.87 in1011.5 mb 0.00 in0.0 mm 0.00 in0.0 mm 0.01 in0.3 mm
09:14 PM 55.4°F13.0°C 48.7°F9.3°C 78% 0.9 mph S1.4 kmh S 2.5 mph4.0 kmh 29.87 in1011.5 mb 0.00 in0.0 mm 0.00 in0.0 mm 0.01 in0.3 mm
09:19 PM 55.4°F13.0°C 48.7°F9.3°C 78% Calm Calm -- 29.88 in1011.9 mb 0.00 in0.0 mm 0.00 in0.0 mm 0.01 in0.3 mm
09:24 PM 55.4°F13.0°C 49.1°F9.5°C 79% 0.2 mph SE0.3 kmh SE 2.5 mph4.0 kmh 29.88 in1011.9 mb 0.00 in0.0 mm 0.00 in0.0 mm 0.01 in0.3 mm
09:29 PM 55.4°F13.0°C 49.1°F9.5°C 79% 0.9 mph SE1.4 kmh SE 2.5 mph4.0 kmh 29.88 in1011.9 mb 0.00 in0.0 mm 0.00 in0.0 mm 0.01 in0.3 mm
09:34 PM 55.2°F12.9°C 49.1°F9.5°C 80% 0.4 mph SSW0.6 kmh SSW 2.5 mph4.0 kmh 29.88 in1011.9 mb 0.00 in0.0 mm 0.00 in0.0 mm 0.01 in0.3 mm
09:39 PM 55.2°F12.9°C 49.1°F9.5°C 80% Calm Calm -- 29.88 in1011.9 mb 0.00 in0.0 mm 0.00 in0.0 mm 0.01 in0.3 mm
09:44 PM 55.0°F12.8°C 49.1°F9.5°C 80% Calm Calm -- 29.88 in1011.9 mb 0.00 in0.0 mm 0.00 in0.0 mm 0.01 in0.3 mm
09:49 PM 54.9°F12.7°C 49.1°F9.5°C 81% Calm Calm -- 29.88 in1011.9 mb 0.00 in0.0 mm 0.00 in0.0 mm 0.01 in0.3 mm
09:54 PM 54.7°F12.6°C 49.6°F9.8°C 83% Calm Calm -- 29.88 in1011.9 mb 0.00 in0.0 mm 0.00 in0.0 mm 0.01 in0.3 mm
09:59 PM 54.5°F12.5°C 49.5°F9.7°C 83% Calm Calm -- 29.88 in1011.9 mb 0.00 in0.0 mm 0.00 in0.0 mm 0.01 in0.3 mm
10:04 PM 54.3°F12.4°C 49.6°F9.8°C 84% Calm Calm -- 29.88 in1011.9 mb 0.00 in0.0 mm 0.00 in0.0 mm 0.01 in0.3 mm
10:09 PM 54.1°F12.3°C 49.8°F9.9°C 85% Calm Calm -- 29.89 in1012.2 mb 0.00 in0.0 mm 0.00 in0.0 mm 0.01 in0.3 mm
10:14 PM 54.0°F12.2°C 49.8°F9.9°C 86% Calm Calm -- 29.88 in1011.9 mb 0.00 in0.0 mm 0.00 in0.0 mm 0.01 in0.3 mm
10:19 PM 54.0°F12.2°C 49.8°F9.9°C 86% 0.2 mph SE0.3 kmh SE 2.5 mph4.0 kmh 29.88 in1011.9 mb 0.00 in0.0 mm 0.00 in0.0 mm 0.01 in0.3 mm
10:24 PM 53.8°F12.1°C 50.0°F10.0°C 87% Calm Calm -- 29.88 in1011.9 mb 0.00 in0.0 mm 0.00 in0.0 mm 0.01 in0.3 mm
10:29 PM 53.6°F12.0°C 49.8°F9.9°C 87% Calm Calm -- 29.88 in1011.9 mb 0.00 in0.0 mm 0.00 in0.0 mm 0.01 in0.3 mm
10:34 PM 53.4°F11.9°C 50.0°F10.0°C 88% Calm Calm -- 29.88 in1011.9 mb 0.00 in0.0 mm 0.00 in0.0 mm 0.01 in0.3 mm
10:39 PM 53.4°F11.9°C 50.4°F10.2°C 89% Calm Calm -- 29.88 in1011.9 mb 0.00 in0.0 mm 0.00 in0.0 mm 0.01 in0.3 mm
10:44 PM 53.2°F11.8°C 50.4°F10.2°C 90% Calm Calm -- 29.88 in1011.9 mb 0.00 in0.0 mm 0.00 in0.0 mm 0.01 in0.3 mm
10:49 PM 53.1°F11.7°C 50.2°F10.1°C 90% Calm Calm -- 29.88 in1011.9 mb 0.00 in0.0 mm 0.00 in0.0 mm 0.01 in0.3 mm
10:54 PM 52.9°F11.6°C 50.4°F10.2°C 91% Calm Calm -- 29.88 in1011.9 mb 0.00 in0.0 mm 0.00 in0.0 mm 0.01 in0.3 mm
10:59 PM 52.7°F11.5°C 50.2°F10.1°C 91% Calm Calm -- 29.88 in1011.9 mb 0.00 in0.0 mm 0.00 in0.0 mm 0.01 in0.3 mm
11:04 PM 52.7°F11.5°C 50.5°F10.3°C 92% Calm Calm -- 29.88 in1011.9 mb 0.00 in0.0 mm 0.00 in0.0 mm 0.01 in0.3 mm
11:09 PM 52.5°F11.4°C 50.4°F10.2°C 92% Calm Calm -- 29.88 in1011.9 mb 0.00 in0.0 mm 0.00 in0.0 mm 0.01 in0.3 mm
11:14 PM 52.3°F11.3°C 50.2°F10.1°C 92% Calm Calm -- 29.88 in1011.9 mb 0.00 in0.0 mm 0.00 in0.0 mm 0.01 in0.3 mm
11:19 PM 52.3°F11.3°C 50.2°F10.1°C 92% Calm Calm -- 29.89 in1012.2 mb 0.00 in0.0 mm 0.00 in0.0 mm 0.01 in0.3 mm
11:24 PM 52.2°F11.2°C 50.0°F10.0°C 92% Calm Calm -- 29.88 in1011.9 mb 0.00 in0.0 mm 0.00 in0.0 mm 0.01 in0.3 mm
11:29 PM 52.2°F11.2°C 50.0°F10.0°C 92% Calm Calm -- 29.88 in1011.9 mb 0.00 in0.0 mm 0.00 in0.0 mm 0.01 in0.3 mm
11:34 PM 52.0°F11.1°C 49.8°F9.9°C 92% Calm Calm -- 29.88 in1011.9 mb 0.00 in0.0 mm 0.00 in0.0 mm 0.01 in0.3 mm
11:39 PM 52.0°F11.1°C 50.0°F10.0°C 93% Calm Calm -- 29.88 in1011.9 mb 0.00 in0.0 mm 0.00 in0.0 mm 0.01 in0.3 mm
11:44 PM 51.8°F11.0°C 49.8°F9.9°C 93% Calm Calm -- 29.88 in1011.9 mb 0.00 in0.0 mm 0.00 in0.0 mm 0.01 in0.3 mm
11:49 PM 51.8°F11.0°C 49.8°F9.9°C 93% Calm Calm -- 29.87 in1011.5 mb 0.00 in0.0 mm 0.00 in0.0 mm 0.01 in0.3 mm
11:54 PM 51.8°F11.0°C 49.8°F9.9°C 93% Calm Calm -- 29.88 in1011.9 mb 0.00 in0.0 mm 0.00 in0.0 mm 0.01 in0.3 mm